createdAt,value
2017-05-02T00:03:47.315Z,8.7
2017-05-02T00:13:58.036Z,8.6
2017-05-02T00:24:08.772Z,8.5
2017-05-02T00:34:19.485Z,8.5
2017-05-02T00:44:30.209Z,8.5
2017-05-02T00:54:40.922Z,8.4
2017-05-02T01:04:51.684Z,8.3
2017-05-02T01:15:02.417Z,8.3
2017-05-02T01:25:13.145Z,8.2
2017-05-02T01:35:23.852Z,8.2
2017-05-02T01:45:34.601Z,8.3
2017-05-02T01:55:45.301Z,8.2
2017-05-02T02:05:56.053Z,8.3
2017-05-02T02:16:06.782Z,8.2
2017-05-02T02:26:17.479Z,8.3
2017-05-02T02:36:28.208Z,8.3
2017-05-02T02:46:38.968Z,8.3
2017-05-02T02:56:49.691Z,8.3
2017-05-02T03:07:00.452Z,8.4
2017-05-02T03:17:11.197Z,8.3
2017-05-02T03:27:21.942Z,8.3
2017-05-02T03:37:32.665Z,8.3
2017-05-02T03:47:43.394Z,8.3
2017-05-02T03:57:54.105Z,8.4
2017-05-02T04:08:04.804Z,8.4
2017-05-02T04:18:15.515Z,8.4
2017-05-02T04:28:26.200Z,8.3
2017-05-02T04:38:36.880Z,8.3
2017-05-02T04:48:47.533Z,8.4
2017-05-02T04:58:58.136Z,8.4
2017-05-02T05:09:08.684Z,8.4
2017-05-02T05:19:19.202Z,8.4
2017-05-02T05:29:29.733Z,8.5
2017-05-02T05:39:40.257Z,8.5
2017-05-02T05:49:50.780Z,8.6
2017-05-02T06:00:01.211Z,8.7
2017-05-02T06:10:11.690Z,8.6
2017-05-02T06:20:22.188Z,8.7
2017-05-02T06:30:32.735Z,8.8
2017-05-02T06:40:43.267Z,8.8
2017-05-02T06:50:53.750Z,8.9
2017-05-02T07:01:04.229Z,9
2017-05-02T07:11:14.601Z,9.2
2017-05-02T07:21:24.891Z,9.1
2017-05-02T07:31:35.030Z,9.3
2017-05-02T07:41:44.976Z,9.6
2017-05-02T07:51:54.805Z,9.8
2017-05-02T08:02:04.625Z,9.8
2017-05-02T08:12:14.383Z,10.1
2017-05-02T08:22:24.115Z,10.2
2017-05-02T08:32:33.840Z,10.1
2017-05-02T08:42:43.599Z,10.1
2017-05-02T08:52:53.349Z,10.1
2017-05-02T09:03:03.097Z,10.1
2017-05-02T09:13:12.765Z,10.4
2017-05-02T09:23:22.249Z,10.2
2017-05-02T09:33:31.805Z,10.1
2017-05-02T09:43:41.378Z,10.2
2017-05-02T09:53:50.940Z,10.2
2017-05-02T10:04:00.350Z,9.9
2017-05-02T10:14:09.739Z,10.3
2017-05-02T10:24:19.152Z,10.2
2017-05-02T10:34:28.613Z,10.4
2017-05-02T10:44:38.174Z,10.5
2017-05-02T10:54:47.621Z,11
2017-05-02T11:04:56.863Z,10.9
2017-05-02T11:15:06.091Z,10.9
2017-05-02T11:25:15.485Z,11
2017-05-02T11:35:24.930Z,11.1
2017-05-02T11:45:34.264Z,11.8
2017-05-02T11:55:43.534Z,12.1
2017-05-02T12:05:52.698Z,12.8
2017-05-02T12:16:01.571Z,12.5
2017-05-02T12:26:10.677Z,12.1
2017-05-02T12:36:20.156Z,11.9
2017-05-02T12:46:29.824Z,12
2017-05-02T12:56:39.650Z,11.1
2017-05-02T13:06:49.525Z,10.7
2017-05-02T13:16:59.432Z,10
2017-05-02T13:27:09.437Z,9.5
2017-05-02T13:37:19.519Z,9.5
2017-05-02T13:47:29.699Z,9.2
2017-05-02T13:57:39.952Z,9.2
2017-05-02T14:07:50.242Z,9.2
2017-05-02T14:18:00.518Z,9.2
2017-05-02T14:28:10.846Z,8.9
2017-05-02T14:38:21.212Z,8.9
2017-05-02T14:48:31.616Z,8.8
2017-05-02T14:58:42.085Z,8.7
2017-05-02T15:08:52.545Z,8.5
2017-05-02T15:19:02.981Z,8.4
2017-05-02T15:29:13.397Z,8.4
2017-05-02T15:39:23.900Z,8.3
2017-05-02T15:49:34.479Z,8.3
2017-05-02T15:59:45.041Z,8.4
2017-05-02T16:09:55.662Z,8.4
2017-05-02T16:20:06.200Z,8.5
2017-05-02T16:30:16.821Z,8.5
2017-05-02T16:40:27.380Z,8.4
2017-05-02T16:50:38.104Z,8.5
2017-05-02T17:00:48.592Z,8.3
2017-05-02T17:10:59.194Z,8.3
2017-05-02T17:21:09.898Z,8.2
2017-05-02T17:31:20.590Z,8.2
2017-05-02T17:41:31.278Z,8.1
2017-05-02T17:51:41.998Z,7.9
2017-05-02T18:01:52.748Z,7.8
2017-05-02T18:12:03.559Z,7.8
2017-05-02T18:22:14.361Z,7.8
2017-05-02T18:32:25.191Z,7.7
2017-05-02T18:42:36.069Z,7.7
2017-05-02T18:52:47.000Z,7.5
2017-05-02T19:02:57.966Z,7.5
2017-05-02T19:13:08.894Z,7.4
2017-05-02T19:23:19.829Z,7.4
2017-05-02T19:33:30.785Z,7.3
2017-05-02T19:43:41.789Z,7.3
2017-05-02T19:53:52.762Z,7.3
2017-05-02T20:04:03.655Z,7.2
2017-05-02T20:14:14.603Z,7.1
2017-05-02T20:24:25.535Z,7.2
2017-05-02T20:34:36.508Z,7.1
2017-05-02T20:44:47.487Z,7.1
2017-05-02T20:54:58.444Z,7.1
2017-05-02T21:05:09.443Z,7.2
2017-05-02T21:15:20.436Z,7.1
2017-05-02T21:25:31.384Z,7.2
2017-05-02T21:35:42.408Z,7.2
2017-05-02T21:45:53.330Z,7.2
2017-05-02T21:56:04.367Z,7.2
2017-05-02T22:06:15.251Z,7.1
2017-05-02T22:16:26.182Z,7.3
2017-05-02T22:26:37.113Z,7.3
2017-05-02T22:36:48.033Z,7.4
2017-05-02T22:46:59.023Z,7.3
2017-05-02T22:57:09.996Z,7.4
2017-05-02T23:07:20.913Z,7.5
2017-05-02T23:17:31.856Z,7.5
2017-05-02T23:27:42.782Z,7.6
2017-05-02T23:37:53.671Z,7.6
2017-05-02T23:48:04.604Z,7.5
2017-05-02T23:58:15.483Z,7.5
